Terminal Aerodrome Forecast
Issued by NWS Detroit/Pontiac, MI

Home | Current Version | Previous Version | Text Only | Print | Product List | Glossary On
Versions: 1 2 3 4 5 6 7 8 9 10 11 12 13 14 15 16 17
000
FTUS43 KDTX 211700
TAFFNT
TAF
KFNT 211729Z 2118/2218 31014KT P6SM -SHRA SCT015 OVC025
      TEMPO 2118/2122 4SM -SHRA SCT010 OVC015
     FM220000 34011KT P6SM BKN015 OVC025
     FM221400 33012KT P6SM BKN030=

USA.gov is the U.S. government's official web portal to all federal, state and local government web resources and services.